createdAt,value
2018-01-27T00:02:11.247Z,24.48
2018-01-27T00:04:39.698Z,22.77
2018-01-27T00:07:12.177Z,21.02
2018-01-27T00:09:43.467Z,22.48
2018-01-27T00:12:12.607Z,22.00
2018-01-27T00:14:41.347Z,22.02
2018-01-27T00:17:10.048Z,19.48
2018-01-27T00:19:41.308Z,20.67
2018-01-27T00:22:10.609Z,24.98
2018-01-27T00:24:43.698Z,21.73
2018-01-27T00:27:13.233Z,23.38
2018-01-27T00:29:46.278Z,18.40
2018-01-27T00:32:17.117Z,21.58
2018-01-27T00:34:48.069Z,21.37
2018-01-27T00:37:17.378Z,18.02
2018-01-27T00:39:49.128Z,20.67
2018-01-27T00:42:18.559Z,17.62
2018-01-27T00:44:50.048Z,20.67
2018-01-27T00:47:18.737Z,19.12
2018-01-27T00:49:51.067Z,17.08
2018-01-27T00:52:19.697Z,18.77
2018-01-27T00:54:50.267Z,17.55
2018-01-27T00:57:19.027Z,18.02
2018-01-27T00:59:50.216Z,19.12
2018-01-27T01:02:22.048Z,23.02
2018-01-27T01:04:53.848Z,18.58
2018-01-27T01:07:22.156Z,19.73
2018-01-27T01:09:51.347Z,19.00
2018-01-27T01:12:19.637Z,17.98
2018-01-27T01:14:51.498Z,19.37
2018-01-27T01:17:20.937Z,19.12
2018-01-27T01:19:49.517Z,18.80
2018-01-27T01:22:21.937Z,17.52
2018-01-27T01:24:51.340Z,19.42
2018-01-27T01:27:20.676Z,16.60
2018-01-27T01:29:49.687Z,17.58
2018-01-27T01:32:23.007Z,18.62
2018-01-27T01:34:53.727Z,16.15
2018-01-27T01:37:22.177Z,17.80
2018-01-27T01:39:53.197Z,19.10
2018-01-27T01:42:29.437Z,17.52
2018-01-27T01:45:00.717Z,19.37
2018-01-27T01:47:33.867Z,15.90
2018-01-27T01:50:03.598Z,18.33
2018-01-27T01:52:32.927Z,19.70
2018-01-27T01:55:02.897Z,16.60
2018-01-27T01:57:39.578Z,17.83
2018-01-27T02:00:10.287Z,18.87
2018-01-27T02:02:38.637Z,18.10
2018-01-27T02:05:11.449Z,15.95
2018-01-27T02:07:39.956Z,17.25
2018-01-27T02:10:09.297Z,21.65
2018-01-27T02:12:39.227Z,18.35
2018-01-27T02:15:08.467Z,16.75
2018-01-27T02:17:39.009Z,18.17
2018-01-27T02:20:08.457Z,17.15
2018-01-27T02:22:40.777Z,17.27
2018-01-27T02:25:09.757Z,23.30
2018-01-27T02:27:44.857Z,23.50
2018-01-27T02:30:17.029Z,21.85
2018-01-27T02:32:49.577Z,20.30
2018-01-27T02:35:18.177Z,19.58
2018-01-27T02:37:50.177Z,22.25
2018-01-27T02:40:19.377Z,20.60
2018-01-27T02:42:47.807Z,20.70
2018-01-27T02:45:16.978Z,20.35
2018-01-27T02:47:45.567Z,23.87
2018-01-27T02:50:13.977Z,21.00
2018-01-27T02:52:43.617Z,20.60
2018-01-27T02:55:12.408Z,24.98
2018-01-27T02:57:43.937Z,21.00
2018-01-27T03:00:16.477Z,21.55
2018-01-27T03:02:48.988Z,18.98
2018-01-27T03:05:17.309Z,19.60
2018-01-27T03:07:49.658Z,17.23
2018-01-27T03:10:22.237Z,19.35
2018-01-27T03:12:50.917Z,21.35
2018-01-27T03:15:19.313Z,19.42
2018-01-27T03:17:48.607Z,18.52
2018-01-27T03:20:21.328Z,19.00
2018-01-27T03:22:54.057Z,18.15
2018-01-27T03:25:26.327Z,17.15
2018-01-27T03:27:55.483Z,17.02
2018-01-27T03:30:27.977Z,17.67
2018-01-27T03:33:02.917Z,18.42
2018-01-27T03:35:31.417Z,17.15
2018-01-27T03:38:01.077Z,20.00
2018-01-27T03:40:30.977Z,18.50
2018-01-27T03:42:59.557Z,16.33
2018-01-27T03:45:29.437Z,18.10
2018-01-27T03:47:58.977Z,19.85
2018-01-27T03:50:32.338Z,19.52
2018-01-27T03:53:04.107Z,16.62
2018-01-27T03:55:32.976Z,20.50
2018-01-27T03:58:02.296Z,17.37
2018-01-27T04:00:30.887Z,19.17
2018-01-27T04:03:00.978Z,17.58
2018-01-27T04:05:30.497Z,20.33
2018-01-27T04:08:03.667Z,19.95
2018-01-27T04:10:35.626Z,20.23
2018-01-27T04:13:08.737Z,17.83
2018-01-27T04:15:46.208Z,18.40
2018-01-27T04:18:15.398Z,19.45
2018-01-27T04:20:46.468Z,17.77
2018-01-27T04:23:25.178Z,19.08
2018-01-27T04:25:55.727Z,19.58
2018-01-27T04:28:27.607Z,18.40
2018-01-27T04:30:56.047Z,19.60
2018-01-27T04:33:24.517Z,17.65
2018-01-27T04:35:56.867Z,20.40
2018-01-27T04:38:29.778Z,19.00
2018-01-27T04:41:02.167Z,21.90
2018-01-27T04:43:30.537Z,17.50
2018-01-27T04:46:02.917Z,19.67
2018-01-27T04:48:33.437Z,23.30
2018-01-27T04:51:02.817Z,19.27
2018-01-27T04:53:34.867Z,18.42
2018-01-27T04:56:06.507Z,18.50
2018-01-27T04:58:39.537Z,17.80
2018-01-27T05:01:11.536Z,18.37
2018-01-27T05:03:43.662Z,17.92
2018-01-27T05:06:15.418Z,21.37
2018-01-27T05:08:48.637Z,20.88
2018-01-27T05:11:17.598Z,19.80
2018-01-27T05:13:49.797Z,21.02
2018-01-27T05:16:20.936Z,20.23
2018-01-27T05:18:53.627Z,17.73
2018-01-27T05:21:22.496Z,22.00
2018-01-27T05:23:53.127Z,19.20
2018-01-27T05:26:23.277Z,21.40
2018-01-27T05:28:51.948Z,19.42
2018-01-27T05:31:20.196Z,20.02
2018-01-27T05:33:50.569Z,17.90
2018-01-27T05:36:20.077Z,18.20
2018-01-27T05:38:50.948Z,18.70
2018-01-27T05:41:20.097Z,18.50
2018-01-27T05:43:50.788Z,18.45
2018-01-27T05:46:20.316Z,21.02
2018-01-27T05:48:49.087Z,24.45
2018-01-27T05:51:18.256Z,24.67
2018-01-27T05:53:51.287Z,22.85
2018-01-27T05:56:20.067Z,24.40
2018-01-27T05:58:50.997Z,27.92
2018-01-27T06:01:21.027Z,28.10
2018-01-27T06:03:49.708Z,30.83
2018-01-27T06:06:22.707Z,25.12
2018-01-27T06:08:55.177Z,25.60
2018-01-27T06:11:24.838Z,21.42
2018-01-27T06:13:54.437Z,21.67
2018-01-27T06:16:24.377Z,21.42
2018-01-27T06:18:53.518Z,25.95
2018-01-27T06:21:23.166Z,24.90
2018-01-27T06:23:52.627Z,27.45
2018-01-27T06:26:21.894Z,25.88
2018-01-27T06:28:50.677Z,26.33
2018-01-27T06:31:20.678Z,25.45
2018-01-27T06:33:50.068Z,23.40
2018-01-27T06:36:21.637Z,24.75
2018-01-27T06:38:51.057Z,25.45
2018-01-27T06:41:23.227Z,20.98
2018-01-27T06:43:55.187Z,24.00
2018-01-27T06:46:29.268Z,22.50
2018-01-27T06:48:58.657Z,22.35
2018-01-27T06:51:27.269Z,22.05
2018-01-27T06:53:55.617Z,20.73
2018-01-27T06:56:24.237Z,44.83
2018-01-27T06:58:52.838Z,27.58
2018-01-27T07:01:23.227Z,24.67
2018-01-27T07:03:52.416Z,24.98
2018-01-27T07:06:21.867Z,20.88
2018-01-27T07:08:49.862Z,22.00
2018-01-27T07:11:18.417Z,25.52
2018-01-27T07:13:50.868Z,25.83
2018-01-27T07:16:21.257Z,24.95
2018-01-27T07:18:50.977Z,21.50
2018-01-27T07:21:21.757Z,26.15
2018-01-27T07:23:54.058Z,24.02
2018-01-27T07:26:26.708Z,27.05
2018-01-27T07:28:55.301Z,28.17
2018-01-27T07:31:26.606Z,30.17
2018-01-27T07:33:58.387Z,27.30
2018-01-27T07:36:27.387Z,26.35
2018-01-27T07:38:56.157Z,26.65
2018-01-27T07:41:24.547Z,28.67
2018-01-27T07:43:56.496Z,24.80
2018-01-27T07:46:27.837Z,25.60
2018-01-27T07:48:56.369Z,35.75
2018-01-27T07:51:25.036Z,26.95
2018-01-27T07:53:53.778Z,25.15
2018-01-27T07:56:30.637Z,25.50
2018-01-27T07:59:03.797Z,23.10
2018-01-27T08:01:32.128Z,24.23
2018-01-27T08:04:01.006Z,109.65
2018-01-27T08:06:30.626Z,29.87
2018-01-27T08:09:00.206Z,23.80
2018-01-27T08:11:28.686Z,24.58
2018-01-27T08:13:57.886Z,31.23
2018-01-27T08:16:30.047Z,27.02
2018-01-27T08:18:58.827Z,23.35
2018-01-27T08:21:30.797Z,25.08
2018-01-27T08:24:00.478Z,25.20
2018-01-27T08:26:29.237Z,23.25
2018-01-27T08:28:57.967Z,29.37
2018-01-27T08:31:35.566Z,24.70
2018-01-27T08:34:05.658Z,27.30
2018-01-27T08:36:34.308Z,23.87
2018-01-27T08:39:03.112Z,26.35
2018-01-27T08:41:32.176Z,21.90
2018-01-27T08:44:01.477Z,26.35
2018-01-27T08:46:30.857Z,25.50
2018-01-27T08:48:59.498Z,23.60
2018-01-27T08:51:32.567Z,27.77
2018-01-27T08:54:05.877Z,32.58
2018-01-27T08:56:38.606Z,27.55
2018-01-27T08:59:10.157Z,27.80
2018-01-27T09:01:38.938Z,31.87
2018-01-27T09:04:08.996Z,32.80
2018-01-27T09:06:40.583Z,33.78
2018-01-27T09:09:11.447Z,31.62
2018-01-27T09:11:41.528Z,32.55
2018-01-27T09:14:10.157Z,29.50
2018-01-27T09:16:41.578Z,30.37
2018-01-27T09:19:10.168Z,27.75
2018-01-27T09:21:39.137Z,80.90
2018-01-27T09:24:11.297Z,26.08
2018-01-27T09:26:41.808Z,28.73
2018-01-27T09:29:10.138Z,29.20
2018-01-27T09:31:39.737Z,32.78
2018-01-27T09:34:08.558Z,32.75
2018-01-27T09:36:38.449Z,34.53
2018-01-27T09:39:08.206Z,31.08
2018-01-27T09:41:37.270Z,32.55
2018-01-27T09:44:06.749Z,31.98
2018-01-27T09:46:35.857Z,29.60
2018-01-27T09:49:05.687Z,31.50
2018-01-27T09:51:34.577Z,32.10
2018-01-27T09:54:04.287Z,38.08
2018-01-27T09:56:35.237Z,31.15
2018-01-27T09:59:04.917Z,27.90
2018-01-27T10:01:34.777Z,30.23
2018-01-27T10:04:03.317Z,34.10
2018-01-27T10:06:33.817Z,29.52
2018-01-27T10:09:03.298Z,30.08
2018-01-27T10:11:32.318Z,32.90
2018-01-27T10:14:01.578Z,34.47
2018-01-27T10:16:30.217Z,48.40
2018-01-27T10:18:58.868Z,29.80
2018-01-27T10:21:27.827Z,30.58
2018-01-27T10:23:56.678Z,28.08
2018-01-27T10:26:25.777Z,27.92
2018-01-27T10:28:56.258Z,32.60
2018-01-27T10:31:25.497Z,26.23
2018-01-27T10:33:55.238Z,31.23
2018-01-27T10:36:24.757Z,34.13
2018-01-27T10:38:53.538Z,35.58
2018-01-27T10:41:23.007Z,30.05
2018-01-27T10:43:53.067Z,34.08
2018-01-27T10:46:22.207Z,32.17
2018-01-27T10:48:51.897Z,33.40
2018-01-27T10:51:30.728Z,32.85
2018-01-27T10:54:00.507Z,32.30
2018-01-27T10:56:29.248Z,31.65
2018-01-27T10:58:59.157Z,29.12
2018-01-27T11:01:28.267Z,32.08
2018-01-27T11:03:58.027Z,28.67
2018-01-27T11:06:26.967Z,30.17
2018-01-27T11:08:56.127Z,58.33
2018-01-27T11:11:25.258Z,34.90
2018-01-27T11:13:56.289Z,32.22
2018-01-27T11:16:24.799Z,31.70
2018-01-27T11:18:55.200Z,29.23
2018-01-27T11:21:24.711Z,30.88
2018-01-27T11:23:54.779Z,28.12
2018-01-27T11:26:23.408Z,30.92
2018-01-27T11:28:52.548Z,30.10
2018-01-27T11:31:21.248Z,29.73
2018-01-27T11:33:52.728Z,33.03
2018-01-27T11:36:22.439Z,29.15
2018-01-27T11:38:52.008Z,30.70
2018-01-27T11:41:21.238Z,29.23
2018-01-27T11:43:50.478Z,34.97
2018-01-27T11:46:20.209Z,30.12
2018-01-27T11:48:49.048Z,28.95
2018-01-27T11:51:18.668Z,33.67
2018-01-27T11:53:47.908Z,30.12
2018-01-27T11:56:16.739Z,31.10
2018-01-27T11:58:46.108Z,30.00
2018-01-27T12:01:15.208Z,33.90
2018-01-27T12:03:43.708Z,35.35
2018-01-27T12:06:12.367Z,37.00
2018-01-27T12:08:41.708Z,33.55
2018-01-27T12:11:10.697Z,31.70
2018-01-27T12:13:40.298Z,32.92
2018-01-27T12:16:10.029Z,29.65
2018-01-27T12:18:39.368Z,33.13
2018-01-27T12:21:07.968Z,33.17
2018-01-27T12:23:36.967Z,29.35
2018-01-27T12:26:05.917Z,31.80
2018-01-27T12:28:34.777Z,32.40
2018-01-27T12:31:04.247Z,33.50
2018-01-27T12:33:33.559Z,35.50
2018-01-27T12:36:03.726Z,39.60
2018-01-27T12:38:32.457Z,32.00
2018-01-27T12:41:01.738Z,31.77
2018-01-27T12:43:29.947Z,32.63
2018-01-27T12:45:59.638Z,31.98
2018-01-27T12:48:28.519Z,34.22
2018-01-27T12:50:57.247Z,35.38
2018-01-27T12:53:25.947Z,32.67
2018-01-27T12:55:55.208Z,33.53
2018-01-27T12:58:31.308Z,34.75
2018-01-27T13:01:00.388Z,36.03
2018-01-27T13:03:32.617Z,35.00
2018-01-27T13:06:01.257Z,31.52
2018-01-27T13:08:29.947Z,33.47
2018-01-27T13:10:58.547Z,33.78
2018-01-27T13:13:29.588Z,33.67
2018-01-27T13:15:59.458Z,32.45
2018-01-27T13:18:28.438Z,34.15
2018-01-27T13:20:58.548Z,32.10
2018-01-27T13:23:28.237Z,32.95
2018-01-27T13:25:56.671Z,36.35
2018-01-27T13:28:25.708Z,32.55
2018-01-27T13:30:54.188Z,34.03
2018-01-27T13:33:23.008Z,35.25
2018-01-27T13:35:52.117Z,32.30
2018-01-27T13:38:20.877Z,37.63
2018-01-27T13:40:52.175Z,39.17
2018-01-27T13:43:20.887Z,34.33
2018-01-27T13:45:49.487Z,33.63
2018-01-27T13:48:18.008Z,31.77
2018-01-27T13:50:46.447Z,40.50
2018-01-27T13:53:15.207Z,38.10
2018-01-27T13:55:44.117Z,34.78
2018-01-27T13:58:13.246Z,37.28
2018-01-27T14:00:42.067Z,35.72
2018-01-27T14:03:10.867Z,36.13
2018-01-27T14:05:39.678Z,35.85
2018-01-27T14:08:08.357Z,38.92
2018-01-27T14:10:37.896Z,37.25
2018-01-27T14:13:07.639Z,34.67
2018-01-27T14:15:36.287Z,34.67
2018-01-27T14:18:05.888Z,34.75
2018-01-27T14:20:35.257Z,32.22
2018-01-27T14:23:03.798Z,35.33
2018-01-27T14:25:32.538Z,35.97
2018-01-27T14:28:01.027Z,40.50
2018-01-27T14:30:30.204Z,37.90
2018-01-27T14:32:58.999Z,34.40
2018-01-27T14:35:27.328Z,40.90
2018-01-27T14:37:55.997Z,37.22
2018-01-27T14:40:26.607Z,38.28
2018-01-27T14:42:56.256Z,35.10
2018-01-27T14:45:24.567Z,35.53
2018-01-27T14:47:53.168Z,38.25
2018-01-27T14:50:23.924Z,35.65
2018-01-27T14:52:52.447Z,36.00
2018-01-27T14:55:20.807Z,39.15
2018-01-27T14:57:49.357Z,38.10
2018-01-27T15:00:18.907Z,38.40
2018-01-27T15:02:48.096Z,35.30
2018-01-27T15:05:16.996Z,38.08
2018-01-27T15:07:45.659Z,38.00
2018-01-27T15:10:14.717Z,35.90
2018-01-27T15:12:44.117Z,38.60
2018-01-27T15:15:13.612Z,39.88
2018-01-27T15:17:45.269Z,36.05
2018-01-27T15:20:14.638Z,37.70
2018-01-27T15:22:43.227Z,35.58
2018-01-27T15:25:12.077Z,36.22
2018-01-27T15:27:40.827Z,36.88
2018-01-27T15:30:09.206Z,46.92
2018-01-27T15:32:38.216Z,38.10
2018-01-27T15:35:08.817Z,36.03
2018-01-27T15:37:37.487Z,32.67
2018-01-27T15:40:06.487Z,36.92
2018-01-27T15:42:35.589Z,36.22
2018-01-27T15:45:04.298Z,33.80
2018-01-27T15:47:33.578Z,34.13
2018-01-27T15:50:02.796Z,32.85
2018-01-27T15:52:31.991Z,33.95
2018-01-27T15:55:02.557Z,30.58
2018-01-27T15:57:30.788Z,36.80
2018-01-27T15:59:59.818Z,37.92
2018-01-27T16:02:28.557Z,36.20
2018-01-27T16:04:57.997Z,40.40
2018-01-27T16:07:27.180Z,38.40
2018-01-27T16:09:56.816Z,37.53
2018-01-27T16:12:25.742Z,37.70
2018-01-27T16:14:54.768Z,40.35
2018-01-27T16:17:24.998Z,33.90
2018-01-27T16:19:53.477Z,34.75
2018-01-27T16:22:22.418Z,33.50
2018-01-27T16:24:51.288Z,34.25
2018-01-27T16:27:20.076Z,33.92
2018-01-27T16:29:48.726Z,34.13
2018-01-27T16:32:18.477Z,38.70
2018-01-27T16:34:47.937Z,34.65
2018-01-27T16:37:17.587Z,35.55
2018-01-27T16:39:46.187Z,38.05
2018-01-27T16:42:14.957Z,30.92
2018-01-27T16:44:43.609Z,38.95
2018-01-27T16:47:12.578Z,34.03
2018-01-27T16:49:41.979Z,30.90
2018-01-27T16:52:11.576Z,33.88
2018-01-27T16:54:41.639Z,33.25
2018-01-27T16:57:10.286Z,33.97
2018-01-27T16:59:38.567Z,34.47
2018-01-27T17:02:07.968Z,30.05
2018-01-27T17:04:37.537Z,38.08
2018-01-27T17:07:05.867Z,33.40
2018-01-27T17:09:34.837Z,34.53
2018-01-27T17:12:04.388Z,35.63
2018-01-27T17:14:33.199Z,28.62
2018-01-27T17:17:02.277Z,28.52
2018-01-27T17:19:30.767Z,33.85
2018-01-27T17:21:59.599Z,33.65
2018-01-27T17:24:29.138Z,46.33
2018-01-27T17:26:57.781Z,32.90
2018-01-27T17:29:28.947Z,35.47
2018-01-27T17:31:58.647Z,37.92
2018-01-27T17:34:27.838Z,35.65
2018-01-27T17:36:57.337Z,31.02
2018-01-27T17:39:26.857Z,36.65
2018-01-27T17:41:56.238Z,37.75
2018-01-27T17:44:24.847Z,32.85
2018-01-27T17:46:54.137Z,34.25
2018-01-27T17:49:23.641Z,39.03
2018-01-27T17:51:53.156Z,39.92
2018-01-27T17:54:21.817Z,29.70
2018-01-27T17:56:51.049Z,31.37
2018-01-27T17:59:19.737Z,34.90
2018-01-27T18:01:48.268Z,32.05
2018-01-27T18:04:17.058Z,32.35
2018-01-27T18:06:45.476Z,37.75
2018-01-27T18:09:14.217Z,36.15
2018-01-27T18:11:43.257Z,35.15
2018-01-27T18:14:11.797Z,32.13
2018-01-27T18:16:40.566Z,28.58
2018-01-27T18:19:11.807Z,43.30
2018-01-27T18:21:40.517Z,33.80
2018-01-27T18:24:09.679Z,31.33
2018-01-27T18:26:38.278Z,31.33
2018-01-27T18:29:07.137Z,31.42
2018-01-27T18:31:35.718Z,29.12
2018-01-27T18:34:04.537Z,28.95
2018-01-27T18:36:33.057Z,28.20
2018-01-27T18:39:02.696Z,34.05
2018-01-27T18:41:32.408Z,36.50
2018-01-27T18:44:01.157Z,36.20
2018-01-27T18:46:30.549Z,31.60
2018-01-27T18:48:59.067Z,30.15
2018-01-27T18:51:27.718Z,30.40
2018-01-27T18:53:57.026Z,28.90
2018-01-27T18:56:26.379Z,30.05
2018-01-27T18:58:59.517Z,31.98
2018-01-27T19:01:28.068Z,28.02
2018-01-27T19:03:56.556Z,25.65
2018-01-27T19:06:25.227Z,25.50
2018-01-27T19:08:54.700Z,33.03
2018-01-27T19:11:23.037Z,23.23
2018-01-27T19:13:52.347Z,23.08
2018-01-27T19:16:21.626Z,26.52
2018-01-27T19:18:49.860Z,22.80
2018-01-27T19:21:18.639Z,22.55
2018-01-27T19:23:47.108Z,23.33
2018-01-27T19:26:16.437Z,21.45
2018-01-27T19:28:45.177Z,20.75
2018-01-27T19:31:14.416Z,21.02
2018-01-27T19:33:43.562Z,25.83
2018-01-27T19:36:13.176Z,28.42
2018-01-27T19:38:42.158Z,34.60
2018-01-27T19:41:11.307Z,36.60
2018-01-27T19:43:40.067Z,35.15
2018-01-27T19:46:10.627Z,40.72
2018-01-27T19:48:39.217Z,38.00
2018-01-27T19:51:07.988Z,29.10
2018-01-27T19:53:36.627Z,29.83
2018-01-27T19:56:06.114Z,27.33
2018-01-27T19:58:34.726Z,27.77
2018-01-27T20:01:04.367Z,25.23
2018-01-27T20:03:32.847Z,27.05
2018-01-27T20:06:06.527Z,26.83
2018-01-27T20:08:34.867Z,28.98
2018-01-27T20:11:03.468Z,38.05
2018-01-27T20:13:33.036Z,26.45
2018-01-27T20:16:04.248Z,27.77
2018-01-27T20:18:32.797Z,30.85
2018-01-27T20:21:02.849Z,27.20
2018-01-27T20:23:31.687Z,29.58
2018-01-27T20:26:02.557Z,30.37
2018-01-27T20:28:31.379Z,28.38
2018-01-27T20:31:00.217Z,27.92
2018-01-27T20:33:30.177Z,33.38
2018-01-27T20:35:58.967Z,33.55
2018-01-27T20:38:27.896Z,29.70
2018-01-27T20:40:56.427Z,30.50
2018-01-27T20:43:25.396Z,29.12
2018-01-27T20:45:54.087Z,33.72
2018-01-27T20:48:25.311Z,31.70
2018-01-27T20:50:54.829Z,32.47
2018-01-27T20:53:27.547Z,32.85
2018-01-27T20:55:56.398Z,35.03
2018-01-27T20:58:25.117Z,36.90
2018-01-27T21:00:53.787Z,34.70
2018-01-27T21:03:24.728Z,36.88
2018-01-27T21:05:53.618Z,32.95
2018-01-27T21:08:22.037Z,34.08
2018-01-27T21:10:50.568Z,34.83
2018-01-27T21:13:20.097Z,33.03
2018-01-27T21:15:48.677Z,36.30
2018-01-27T21:18:16.908Z,40.47
2018-01-27T21:20:46.078Z,35.38
2018-01-27T21:23:14.447Z,43.78
2018-01-27T21:25:43.708Z,38.83
2018-01-27T21:28:12.188Z,37.38
2018-01-27T21:30:40.767Z,39.00
2018-01-27T21:33:09.420Z,41.42
2018-01-27T21:35:39.757Z,43.58
2018-01-27T21:38:08.737Z,42.17
2018-01-27T21:40:39.938Z,42.25
2018-01-27T21:43:08.498Z,46.67
2018-01-27T21:45:37.077Z,48.70
2018-01-27T21:48:07.018Z,44.35
2018-01-27T21:50:35.557Z,41.03
2018-01-27T21:53:04.307Z,42.13
2018-01-27T21:55:33.399Z,42.33
2018-01-27T21:58:02.357Z,43.55
2018-01-27T22:00:30.787Z,41.90
2018-01-27T22:03:00.079Z,41.55
2018-01-27T22:05:29.297Z,40.78
2018-01-27T22:07:58.530Z,39.90
2018-01-27T22:10:27.318Z,41.67
2018-01-27T22:12:55.917Z,42.70
2018-01-27T22:15:24.317Z,41.00
2018-01-27T22:17:53.868Z,38.83
2018-01-27T22:20:22.428Z,37.78
2018-01-27T22:22:51.708Z,39.15
2018-01-27T22:25:22.517Z,37.63
2018-01-27T22:27:52.517Z,40.10
2018-01-27T22:30:20.838Z,42.08
2018-01-27T22:32:49.508Z,39.38
2018-01-27T22:35:17.897Z,42.30
2018-01-27T22:37:47.588Z,43.28
2018-01-27T22:40:15.857Z,42.95
2018-01-27T22:42:44.417Z,37.80
2018-01-27T22:45:13.759Z,34.92
2018-01-27T22:47:42.400Z,36.85
2018-01-27T22:50:11.237Z,38.17
2018-01-27T22:52:40.354Z,36.28
2018-01-27T22:55:09.757Z,41.08
2018-01-27T22:57:39.307Z,42.65
2018-01-27T23:00:07.947Z,41.35
2018-01-27T23:02:37.158Z,38.70
2018-01-27T23:05:05.667Z,43.60
2018-01-27T23:07:34.051Z,46.65
2018-01-27T23:10:03.923Z,44.05
2018-01-27T23:12:32.407Z,47.45
2018-01-27T23:15:03.548Z,44.88
2018-01-27T23:17:32.307Z,43.65
2018-01-27T23:20:00.627Z,43.58
2018-01-27T23:22:29.548Z,47.60
2018-01-27T23:24:58.047Z,45.47
2018-01-27T23:27:26.421Z,46.83
2018-01-27T23:29:54.877Z,46.17
2018-01-27T23:32:24.518Z,45.25
2018-01-27T23:34:54.790Z,43.92
2018-01-27T23:37:23.309Z,44.00
2018-01-27T23:39:51.997Z,39.92
2018-01-27T23:42:20.279Z,43.35
2018-01-27T23:44:48.650Z,43.47
2018-01-27T23:47:16.825Z,44.22
2018-01-27T23:49:45.347Z,41.35
2018-01-27T23:52:13.997Z,41.13
2018-01-27T23:54:42.317Z,41.63
2018-01-27T23:57:11.297Z,39.58
2018-01-27T23:59:40.057Z,37.63
